createdAt,value
2022-09-21T00:00:28.324Z,2.50
2022-09-21T00:02:59.524Z,2.60
2022-09-21T00:05:29.949Z,3.00
2022-09-21T00:08:02.560Z,2.70
2022-09-21T00:10:33.779Z,2.80
2022-09-21T00:13:04.237Z,2.50
2022-09-21T00:15:34.752Z,3.10
2022-09-21T00:18:05.052Z,3.00
2022-09-21T00:20:35.333Z,3.30
2022-09-21T00:23:05.954Z,3.00
2022-09-21T00:25:36.246Z,2.90
2022-09-21T00:28:06.423Z,3.30
2022-09-21T00:30:38.097Z,2.80
2022-09-21T00:33:08.223Z,3.10
2022-09-21T00:35:39.227Z,3.20
2022-09-21T00:38:09.432Z,3.10
2022-09-21T00:40:39.584Z,3.10
2022-09-21T00:43:18.256Z,3.60
2022-09-21T00:45:51.748Z,3.40
2022-09-21T00:48:21.902Z,3.20
2022-09-21T00:50:55.480Z,3.50
2022-09-21T00:53:26.320Z,3.00
2022-09-21T00:56:00.521Z,3.00
2022-09-21T00:58:35.027Z,3.20
2022-09-21T01:01:05.265Z,3.20
2022-09-21T01:03:35.712Z,3.30
2022-09-21T01:06:07.430Z,3.10
2022-09-21T01:08:38.094Z,3.00
2022-09-21T01:11:28.770Z,3.40
2022-09-21T01:14:19.290Z,3.00
2022-09-21T01:17:02.558Z,3.10
2022-09-21T01:19:59.285Z,2.80
2022-09-21T01:22:44.495Z,2.40
2022-09-21T01:25:28.372Z,2.50
2022-09-21T01:28:13.749Z,2.60
2022-09-21T01:30:48.912Z,2.60
2022-09-21T01:33:27.345Z,3.20
2022-09-21T01:36:02.832Z,3.30
2022-09-21T01:38:38.440Z,3.00
2022-09-21T01:41:11.824Z,3.70
2022-09-21T01:43:47.565Z,3.10
2022-09-21T01:46:20.901Z,3.30
2022-09-21T01:48:54.090Z,3.70
2022-09-21T01:51:27.908Z,3.20
2022-09-21T01:54:03.844Z,3.30
2022-09-21T01:56:41.670Z,3.20
2022-09-21T01:59:17.706Z,2.90
2022-09-21T02:01:52.456Z,3.50
2022-09-21T02:04:22.731Z,2.90
2022-09-21T02:06:55.178Z,3.00
2022-09-21T02:09:26.203Z,3.20
2022-09-21T02:11:58.188Z,3.10
2022-09-21T02:14:28.957Z,2.90
2022-09-21T02:17:15.034Z,2.90
2022-09-21T02:19:54.321Z,2.70
2022-09-21T02:22:33.296Z,2.90
2022-09-21T02:25:09.635Z,2.70
2022-09-21T02:27:47.514Z,2.50
2022-09-21T02:30:20.523Z,2.80
2022-09-21T02:32:58.856Z,2.80
2022-09-21T02:35:37.088Z,2.80
2022-09-21T02:38:16.823Z,2.40
2022-09-21T02:40:54.928Z,2.50
2022-09-21T02:43:29.144Z,3.30
2022-09-21T02:46:05.337Z,2.60
2022-09-21T02:48:39.381Z,3.00
2022-09-21T02:51:15.013Z,3.40
2022-09-21T02:53:47.520Z,2.90
2022-09-21T02:56:18.635Z,2.70
2022-09-21T02:58:54.892Z,2.70
2022-09-21T03:01:26.829Z,2.90
2022-09-21T03:03:57.119Z,2.60
2022-09-21T03:06:27.767Z,2.70
2022-09-21T03:08:58.622Z,2.80
2022-09-21T03:11:29.225Z,2.80
2022-09-21T03:13:59.780Z,3.10
2022-09-21T03:16:29.953Z,3.20
2022-09-21T03:19:00.141Z,3.20
2022-09-21T03:21:30.305Z,2.80
2022-09-21T03:24:00.544Z,2.90
2022-09-21T03:26:30.709Z,3.00
2022-09-21T03:29:01.007Z,2.90
2022-09-21T03:31:31.468Z,2.90
2022-09-21T03:34:01.665Z,4.00
2022-09-21T03:36:31.801Z,4.00
2022-09-21T03:39:01.910Z,3.50
2022-09-21T03:41:32.505Z,3.80
2022-09-21T03:44:02.884Z,3.80
2022-09-21T03:46:35.178Z,3.50
2022-09-21T03:49:05.548Z,3.10
2022-09-21T03:51:35.697Z,3.10
2022-09-21T03:54:06.540Z,3.20
2022-09-21T03:56:36.928Z,2.90
2022-09-21T03:59:11.796Z,3.10
2022-09-21T04:01:44.792Z,2.90
2022-09-21T04:04:16.595Z,3.30
2022-09-21T04:06:46.971Z,3.40
2022-09-21T04:09:17.195Z,3.80
2022-09-21T04:11:48.828Z,3.20
2022-09-21T04:14:19.095Z,3.30
2022-09-21T04:16:49.856Z,3.00
2022-09-21T04:19:22.320Z,3.40
2022-09-21T04:21:52.932Z,3.50
2022-09-21T04:24:23.345Z,3.50
2022-09-21T04:26:53.460Z,3.90
2022-09-21T04:29:23.612Z,3.70
2022-09-21T04:31:54.270Z,3.30
2022-09-21T04:34:24.454Z,3.20
2022-09-21T04:36:54.705Z,3.50
2022-09-21T04:39:25.010Z,3.60
2022-09-21T04:41:56.885Z,3.20
2022-09-21T04:44:27.006Z,3.60
2022-09-21T04:46:58.103Z,5.80
2022-09-21T04:49:28.738Z,4.00
2022-09-21T04:51:59.244Z,3.10
2022-09-21T04:54:29.438Z,3.20
2022-09-21T04:57:00.334Z,3.30
2022-09-21T04:59:30.804Z,3.00
2022-09-21T05:02:01.236Z,3.30
2022-09-21T05:04:31.415Z,2.90
2022-09-21T05:07:01.498Z,3.20
2022-09-21T05:09:49.394Z,3.30
2022-09-21T05:12:19.584Z,3.40
2022-09-21T05:14:49.709Z,3.40
2022-09-21T05:17:22.744Z,3.50
2022-09-21T05:19:53.649Z,3.10
2022-09-21T05:22:24.262Z,2.90
2022-09-21T05:24:54.449Z,2.90
2022-09-21T05:27:24.819Z,3.20
2022-09-21T05:29:56.476Z,3.20
2022-09-21T05:32:31.317Z,3.20
2022-09-21T05:35:12.580Z,3.00
2022-09-21T05:37:49.354Z,2.40
2022-09-21T05:40:21.323Z,2.50
2022-09-21T05:42:52.751Z,2.80
2022-09-21T05:45:24.001Z,2.70
2022-09-21T05:48:05.235Z,2.60
2022-09-21T05:50:49.005Z,2.30
2022-09-21T05:53:32.357Z,2.50
2022-09-21T05:56:07.689Z,2.20
2022-09-21T05:58:46.409Z,2.90
2022-09-21T06:01:35.660Z,3.10
2022-09-21T06:04:10.871Z,3.20
2022-09-21T06:06:41.045Z,2.90
2022-09-21T06:09:11.218Z,3.10
2022-09-21T06:11:41.343Z,3.40
2022-09-21T06:14:11.720Z,3.50
2022-09-21T06:16:43.062Z,3.60
2022-09-21T06:19:14.936Z,3.70
2022-09-21T06:21:45.423Z,4.50
2022-09-21T06:24:15.615Z,4.30
2022-09-21T06:26:46.113Z,4.00
2022-09-21T06:29:17.490Z,3.80
2022-09-21T06:31:47.626Z,3.60
2022-09-21T06:34:17.736Z,3.90
2022-09-21T06:36:48.021Z,3.90
2022-09-21T06:39:18.135Z,3.40
2022-09-21T06:41:48.261Z,4.10
2022-09-21T06:44:18.862Z,4.20
2022-09-21T06:46:48.957Z,3.40
2022-09-21T06:49:19.047Z,3.90
2022-09-21T06:51:49.858Z,3.90
2022-09-21T06:54:19.904Z,4.20
2022-09-21T06:56:50.000Z,4.60
2022-09-21T06:59:20.357Z,4.20
2022-09-21T07:01:50.818Z,4.60
2022-09-21T07:04:24.996Z,5.00
2022-09-21T07:06:55.515Z,4.70
2022-09-21T07:12:16.292Z,4.90
2022-09-21T07:14:46.410Z,4.30
2022-09-21T07:17:16.524Z,5.10
2022-09-21T07:19:46.894Z,4.90
2022-09-21T07:22:17.346Z,5.30
2022-09-21T07:24:47.458Z,5.20
2022-09-21T07:27:17.698Z,4.70
2022-09-21T07:29:47.850Z,5.30
2022-09-21T07:32:18.310Z,5.80
2022-09-21T07:34:48.501Z,5.60
2022-09-21T07:37:18.658Z,5.70
2022-09-21T07:39:48.741Z,5.30
2022-09-21T07:42:20.264Z,5.30
2022-09-21T07:44:51.217Z,5.50
2022-09-21T07:47:21.906Z,5.50
2022-09-21T07:49:52.034Z,5.20
2022-09-21T07:52:22.178Z,5.40
2022-09-21T07:54:52.315Z,4.90
2022-09-21T07:57:40.139Z,5.40
2022-09-21T08:02:45.161Z,4.60
2022-09-21T08:05:18.417Z,4.60
2022-09-21T08:07:48.857Z,4.90
2022-09-21T08:10:19.314Z,5.40
2022-09-21T08:12:49.420Z,5.00
2022-09-21T08:15:44.112Z,4.50
2022-09-21T08:18:10.281Z,4.50
2022-09-21T08:20:41.447Z,4.60
2022-09-21T08:23:13.060Z,4.90
2022-09-21T08:25:44.642Z,3.90
2022-09-21T08:28:15.140Z,4.10
2022-09-21T08:30:45.339Z,4.60
2022-09-21T08:33:15.561Z,4.30
2022-09-21T08:35:52.561Z,4.40
2022-09-21T08:38:22.860Z,4.10
2022-09-21T08:40:55.211Z,4.20
2022-09-21T08:43:36.441Z,3.90
2022-09-21T08:46:11.392Z,3.50
2022-09-21T08:48:47.367Z,3.30
2022-09-21T08:51:23.312Z,3.30
2022-09-21T08:53:58.570Z,2.70
2022-09-21T08:56:41.826Z,4.00
2022-09-21T08:59:17.496Z,3.90
2022-09-21T09:01:58.687Z,4.20
2022-09-21T09:04:41.600Z,3.70
2022-09-21T09:07:29.321Z,4.30
2022-09-21T09:12:52.269Z,3.50
2022-09-21T09:15:58.734Z,3.90
2022-09-21T09:18:42.721Z,2.50
2022-09-21T09:21:28.231Z,2.40
2022-09-21T09:24:04.536Z,3.20
2022-09-21T09:26:42.855Z,2.20
2022-09-21T09:29:22.753Z,1.80
2022-09-21T09:31:55.710Z,2.60
2022-09-21T09:34:30.567Z,2.60
2022-09-21T09:37:06.838Z,2.10
2022-09-21T09:39:37.107Z,2.30
2022-09-21T09:42:31.910Z,2.00
2022-09-21T09:45:24.214Z,2.30
2022-09-21T09:48:10.321Z,2.30
2022-09-21T09:50:42.679Z,2.40
2022-09-21T09:53:16.698Z,3.30
2022-09-21T09:55:49.888Z,2.80
2022-09-21T09:58:23.094Z,3.10
2022-09-21T10:00:57.671Z,3.00
2022-09-21T10:03:30.234Z,3.20
2022-09-21T10:06:00.426Z,2.70
2022-09-21T10:08:41.947Z,3.40
2022-09-21T10:11:14.319Z,2.80
2022-09-21T10:13:46.910Z,2.40
2022-09-21T10:16:20.366Z,3.20
2022-09-21T10:18:53.026Z,2.60
2022-09-21T10:21:25.426Z,2.30
2022-09-21T10:23:59.272Z,1.80
2022-09-21T10:26:37.653Z,2.30
2022-09-21T10:29:30.165Z,1.90
2022-09-21T10:32:02.957Z,1.80
2022-09-21T10:34:34.586Z,2.20
2022-09-21T10:37:26.543Z,2.10
2022-09-21T10:39:57.163Z,2.10
2022-09-21T10:42:32.501Z,2.00
2022-09-21T10:45:15.917Z,2.10
2022-09-21T10:47:50.457Z,1.50
2022-09-21T10:50:29.998Z,1.30
2022-09-21T10:53:07.805Z,1.30
2022-09-21T10:58:23.353Z,1.50
2022-09-21T11:00:55.570Z,1.40
2022-09-21T11:03:41.614Z,1.60
2022-09-21T11:06:18.346Z,1.80
2022-09-21T11:08:55.506Z,1.50
2022-09-21T11:11:44.717Z,1.50
2022-09-21T11:14:27.092Z,1.70
2022-09-21T11:17:00.880Z,1.70
2022-09-21T11:19:36.030Z,1.50
2022-09-21T11:22:12.687Z,1.10
2022-09-21T11:24:50.167Z,1.40
2022-09-21T11:27:25.362Z,1.20
2022-09-21T11:30:03.098Z,1.40
2022-09-21T11:35:34.228Z,1.40
2022-09-21T11:38:20.237Z,1.20
2022-09-21T11:41:02.338Z,1.10
2022-09-21T11:43:45.758Z,1.40
2022-09-21T11:46:25.796Z,1.10
2022-09-21T11:49:14.638Z,1.00
2022-09-21T11:52:05.664Z,1.00
2022-09-21T11:55:00.777Z,1.10
2022-09-21T11:57:38.033Z,1.40
2022-09-21T12:00:16.845Z,0.80
2022-09-21T12:03:28.730Z,1.00
2022-09-21T12:06:32.647Z,0.90
2022-09-21T12:09:21.244Z,0.90
2022-09-21T12:12:00.075Z,0.80
2022-09-21T12:14:39.919Z,1.20
2022-09-21T12:17:15.467Z,1.20
2022-09-21T12:19:52.555Z,0.80
2022-09-21T12:22:27.681Z,1.20
2022-09-21T12:25:03.737Z,1.20
2022-09-21T12:27:39.078Z,0.90
2022-09-21T12:30:16.970Z,1.80
2022-09-21T12:32:55.801Z,1.00
2022-09-21T12:35:35.250Z,1.40
2022-09-21T12:38:11.993Z,1.20
2022-09-21T12:40:50.020Z,1.10
2022-09-21T12:43:29.686Z,1.10
2022-09-21T12:46:07.663Z,0.90
2022-09-21T12:48:39.812Z,1.00
2022-09-21T12:51:19.966Z,0.90
2022-09-21T12:53:52.885Z,0.90
2022-09-21T12:56:31.622Z,0.90
2022-09-21T12:59:16.778Z,0.70
2022-09-21T13:01:56.449Z,0.80
2022-09-21T13:04:41.630Z,1.60
2022-09-21T13:07:56.011Z,0.70
2022-09-21T13:10:39.743Z,0.70
2022-09-21T13:13:18.668Z,0.70
2022-09-21T13:15:50.895Z,0.90
2022-09-21T13:18:24.943Z,0.90
2022-09-21T13:20:56.856Z,0.80
2022-09-21T13:23:35.323Z,0.60
2022-09-21T13:26:12.062Z,1.10
2022-09-21T13:29:04.532Z,0.80
2022-09-21T13:31:53.028Z,0.70
2022-09-21T13:34:27.475Z,0.90
2022-09-21T13:37:32.589Z,0.60
2022-09-21T13:40:36.310Z,0.90
2022-09-21T13:43:25.215Z,0.70
2022-09-21T13:45:59.575Z,3.90
2022-09-21T13:48:31.266Z,0.80
2022-09-21T13:51:08.358Z,0.60
2022-09-21T13:53:42.065Z,0.90
2022-09-21T13:56:25.886Z,0.80
2022-09-21T13:58:58.532Z,1.00
2022-09-21T14:01:51.243Z,1.30
2022-09-21T14:04:26.632Z,0.80
2022-09-21T14:06:58.714Z,0.70
2022-09-21T14:09:32.446Z,0.80
2022-09-21T14:12:07.342Z,1.10
2022-09-21T14:14:39.939Z,1.10
2022-09-21T14:17:39.045Z,1.00
2022-09-21T14:20:30.428Z,1.00
2022-09-21T14:23:29.479Z,1.20
2022-09-21T14:26:02.075Z,0.90
2022-09-21T14:28:39.916Z,1.10
2022-09-21T14:31:17.080Z,0.70
2022-09-21T14:33:51.466Z,0.60
2022-09-21T14:36:28.813Z,0.80
2022-09-21T14:39:03.982Z,0.70
2022-09-21T14:41:41.561Z,1.00
2022-09-21T14:44:21.595Z,1.10
2022-09-21T14:47:06.585Z,1.00
2022-09-21T14:49:48.428Z,0.80
2022-09-21T14:52:32.588Z,0.90
2022-09-21T14:55:15.788Z,0.70
2022-09-21T14:58:09.346Z,1.60
2022-09-21T15:00:43.151Z,0.70
2022-09-21T15:03:52.596Z,1.10
2022-09-21T15:06:47.700Z,0.70
2022-09-21T15:09:55.702Z,0.80
2022-09-21T15:12:33.084Z,1.20
2022-09-21T15:15:23.558Z,1.20
2022-09-21T15:17:59.959Z,1.00
2022-09-21T15:20:33.074Z,0.70
2022-09-21T15:23:04.202Z,0.80
2022-09-21T15:25:35.545Z,0.90
2022-09-21T15:28:05.946Z,0.60
2022-09-21T15:30:45.810Z,1.00
2022-09-21T15:33:17.082Z,0.90
2022-09-21T15:35:49.905Z,0.90
2022-09-21T15:38:32.381Z,0.90
2022-09-21T15:41:05.619Z,1.10
2022-09-21T15:43:41.249Z,0.60
2022-09-21T15:46:13.974Z,0.90
2022-09-21T15:48:46.137Z,0.90
2022-09-21T15:51:22.217Z,0.90
2022-09-21T15:53:57.906Z,1.10
2022-09-21T15:56:30.044Z,0.90
2022-09-21T15:59:08.969Z,1.00
2022-09-21T16:01:45.594Z,1.00
2022-09-21T16:04:18.705Z,0.70
2022-09-21T16:07:00.631Z,1.00
2022-09-21T16:09:40.217Z,0.80
2022-09-21T16:12:34.910Z,0.70
2022-09-21T16:15:09.848Z,0.90
2022-09-21T16:17:53.573Z,1.00
2022-09-21T16:20:25.439Z,1.00
2022-09-21T16:23:06.365Z,1.10
2022-09-21T16:25:38.254Z,1.00
2022-09-21T16:28:29.343Z,0.90
2022-09-21T16:31:00.350Z,0.90
2022-09-21T16:33:43.883Z,1.00
2022-09-21T16:36:42.243Z,1.20
2022-09-21T16:39:15.676Z,1.00
2022-09-21T16:41:51.967Z,0.80
2022-09-21T16:44:25.583Z,0.80
2022-09-21T16:47:00.230Z,0.90
2022-09-21T16:49:35.161Z,0.70
2022-09-21T16:52:07.384Z,1.20
2022-09-21T16:54:38.520Z,1.10
2022-09-21T16:57:11.683Z,1.20
2022-09-21T16:59:42.037Z,1.30
2022-09-21T17:02:14.096Z,1.40
2022-09-21T17:04:44.684Z,1.50
2022-09-21T17:07:16.639Z,1.30
2022-09-21T17:09:48.148Z,1.30
2022-09-21T17:12:19.213Z,1.70
2022-09-21T17:14:50.240Z,1.40
2022-09-21T17:17:23.185Z,1.50
2022-09-21T17:19:54.933Z,1.30
2022-09-21T17:22:25.449Z,1.20
2022-09-21T17:24:55.809Z,1.50
2022-09-21T17:27:29.074Z,1.40
2022-09-21T17:30:03.362Z,1.40
2022-09-21T17:32:38.466Z,1.30
2022-09-21T17:35:18.502Z,1.30
2022-09-21T17:37:48.916Z,1.90
2022-09-21T17:40:20.798Z,1.30
2022-09-21T17:42:52.789Z,1.80
2022-09-21T17:45:30.690Z,1.60
2022-09-21T17:48:01.927Z,2.20
2022-09-21T17:50:32.960Z,1.80
2022-09-21T17:53:22.189Z,1.90
2022-09-21T17:55:57.634Z,2.00
2022-09-21T17:58:41.185Z,1.70
2022-09-21T18:01:23.434Z,1.60
2022-09-21T18:03:55.088Z,1.60
2022-09-21T18:06:26.715Z,1.90
2022-09-21T18:08:58.310Z,1.60
2022-09-21T18:11:46.220Z,2.80
2022-09-21T18:14:24.413Z,2.70
2022-09-21T18:17:02.398Z,2.10
2022-09-21T18:19:42.544Z,2.00
2022-09-21T18:22:20.063Z,1.90
2022-09-21T18:24:51.926Z,1.50
2022-09-21T18:27:23.487Z,1.70
2022-09-21T18:29:54.941Z,1.90
2022-09-21T18:32:55.403Z,1.60
2022-09-21T18:35:38.700Z,1.90
2022-09-21T18:38:21.785Z,1.60
2022-09-21T18:41:04.692Z,1.80
2022-09-21T18:43:53.173Z,1.50
2022-09-21T18:46:33.714Z,1.80
2022-09-21T18:49:12.576Z,1.90
2022-09-21T18:51:47.899Z,1.80
2022-09-21T18:54:22.090Z,1.80
2022-09-21T18:56:52.640Z,2.00
2022-09-21T18:59:25.709Z,2.50
2022-09-21T19:02:00.005Z,2.90
2022-09-21T19:04:31.060Z,3.20
2022-09-21T19:07:10.462Z,3.10
2022-09-21T19:09:52.260Z,3.00
2022-09-21T19:12:43.763Z,3.10
2022-09-21T19:15:36.487Z,2.80
2022-09-21T19:18:20.632Z,3.10
2022-09-21T19:21:04.291Z,2.70
2022-09-21T19:23:42.312Z,2.40
2022-09-21T19:26:19.598Z,2.40
2022-09-21T19:29:12.855Z,2.40
2022-09-21T19:31:43.668Z,2.50
2022-09-21T19:34:17.398Z,2.50
2022-09-21T19:36:48.503Z,2.80
2022-09-21T19:39:19.888Z,2.70
2022-09-21T19:42:02.203Z,3.00
2022-09-21T19:44:45.535Z,2.90
2022-09-21T19:47:25.764Z,2.80
2022-09-21T19:50:00.161Z,3.00
2022-09-21T19:52:33.760Z,2.80
2022-09-21T19:55:23.068Z,3.20
2022-09-21T19:58:09.151Z,2.80
2022-09-21T20:00:39.966Z,2.90
2022-09-21T20:03:17.666Z,2.90
2022-09-21T20:05:54.880Z,2.50
2022-09-21T20:08:30.921Z,2.80
2022-09-21T20:11:12.647Z,2.90
2022-09-21T20:13:58.646Z,2.70
2022-09-21T20:16:35.696Z,2.80
2022-09-21T20:19:14.401Z,2.10
2022-09-21T20:21:47.124Z,2.20
2022-09-21T20:24:22.956Z,2.50
2022-09-21T20:26:54.326Z,8.30
2022-09-21T20:29:24.793Z,8.30
2022-09-21T20:31:56.238Z,8.60
2022-09-21T20:34:26.589Z,11.20
2022-09-21T20:36:57.414Z,8.00
2022-09-21T20:39:27.864Z,6.10
2022-09-21T20:41:59.819Z,4.40
2022-09-21T20:44:30.546Z,4.10
2022-09-21T20:47:00.873Z,3.30
2022-09-21T20:49:31.242Z,2.80
2022-09-21T20:52:01.912Z,3.50
2022-09-21T20:54:32.314Z,3.50
2022-09-21T20:57:02.716Z,3.40
2022-09-21T20:59:32.875Z,2.60
2022-09-21T21:02:03.290Z,3.20
2022-09-21T21:04:33.958Z,2.90
2022-09-21T21:07:04.354Z,3.20
2022-09-21T21:09:34.780Z,2.90
2022-09-21T21:12:05.262Z,2.90
2022-09-21T21:14:35.724Z,2.60
2022-09-21T21:17:06.550Z,3.10
2022-09-21T21:19:36.949Z,2.50
2022-09-21T21:22:07.435Z,2.50
2022-09-21T21:24:41.780Z,2.50
2022-09-21T21:27:16.387Z,2.60
2022-09-21T21:29:49.954Z,2.50
2022-09-21T21:32:23.798Z,2.90
2022-09-21T21:34:55.034Z,2.40
2022-09-21T21:37:26.503Z,2.80
2022-09-21T21:39:57.245Z,2.40
2022-09-21T21:42:29.517Z,2.80
2022-09-21T21:45:00.354Z,3.40
2022-09-21T21:47:46.143Z,3.00
2022-09-21T21:50:16.709Z,3.00
2022-09-21T21:52:46.840Z,2.80
2022-09-21T21:55:17.029Z,2.60
2022-09-21T21:57:47.559Z,2.40
2022-09-21T22:00:17.894Z,2.80
2022-09-21T22:02:48.353Z,2.40
2022-09-21T22:05:18.489Z,2.50
2022-09-21T22:07:48.989Z,2.60
2022-09-21T22:10:19.703Z,2.30
2022-09-21T22:12:52.076Z,2.20
2022-09-21T22:15:22.187Z,2.30
2022-09-21T22:17:52.718Z,2.40
2022-09-21T22:20:23.798Z,2.40
2022-09-21T22:22:54.726Z,3.80
2022-09-21T22:25:25.289Z,7.20
2022-09-21T22:27:55.968Z,7.10
2022-09-21T22:30:26.370Z,3.80
2022-09-21T22:32:57.628Z,3.20
2022-09-21T22:35:27.801Z,2.80
2022-09-21T22:37:58.375Z,2.60
2022-09-21T22:40:29.035Z,2.50
2022-09-21T22:42:59.286Z,2.40
2022-09-21T22:45:30.956Z,2.70
2022-09-21T22:48:01.552Z,2.20
2022-09-21T22:50:32.024Z,2.20
2022-09-21T22:53:03.226Z,2.20
2022-09-21T22:55:33.318Z,2.30
2022-09-21T22:58:03.454Z,2.20
2022-09-21T23:00:33.896Z,2.50
2022-09-21T23:03:04.976Z,2.20
2022-09-21T23:05:35.097Z,2.50
2022-09-21T23:08:05.756Z,2.10
2022-09-21T23:10:35.879Z,2.50
2022-09-21T23:13:06.010Z,2.30
2022-09-21T23:15:36.155Z,2.40
2022-09-21T23:18:06.397Z,2.00
2022-09-21T23:20:36.957Z,2.30
2022-09-21T23:23:07.232Z,2.20
2022-09-21T23:25:37.579Z,2.40
2022-09-21T23:28:07.870Z,2.10
2022-09-21T23:30:37.977Z,2.10
2022-09-21T23:33:08.126Z,2.30
2022-09-21T23:35:43.310Z,2.60
2022-09-21T23:38:13.412Z,2.80
2022-09-21T23:40:43.550Z,2.60
2022-09-21T23:43:13.752Z,2.20
2022-09-21T23:45:44.970Z,2.10
2022-09-21T23:48:15.213Z,2.00
2022-09-21T23:50:46.741Z,2.10
2022-09-21T23:53:17.132Z,2.20
2022-09-21T23:55:47.239Z,1.80
2022-09-21T23:58:17.542Z,2.00
